Time;durP1;ratioP1;P1;durP2;ratioP2;P2;SDS_P1;SDS_P2;PMS_P1;PMS_P2;Temp;Humidity;BMP_temperature;BMP_pressure;BME280_temperature;BME280_humidity;BME280_pressure;Samples;Min_cycle;Max_cycle;Signal;HPM_P1;HPM_P2
2024/01/06 00:02:24;;;;;;;17.93;12.90;;;;;;;;;;5101975;28;20467;-73
2024/01/06 00:04:50;;;;;;;19.17;13.03;;;;;;;;;;5094012;28;20574;-73
2024/01/06 00:07:18;;;;;;;16.67;12.20;;;;;;;;;;5094939;28;20462;-73
2024/01/06 00:09:44;;;;;;;16.07;11.17;;;;;;;;;;5096751;28;20480;-73
2024/01/06 00:12:11;;;;;;;17.17;10.30;;;;;;;;;;5097061;28;20478;-72
2024/01/06 00:14:37;;;;;;;15.70;10.90;;;;;;;;;;5094580;28;20490;-72
2024/01/06 00:17:04;;;;;;;13.37;9.43;;;;;;;;;;5098414;28;20486;-73
2024/01/06 00:19:30;;;;;;;11.43;9.23;;;;;;;;;;5097859;28;20511;-74
2024/01/06 00:21:57;;;;;;;13.30;9.40;;;;;;;;;;5099516;28;20482;-75
2024/01/06 00:24:24;;;;;;;12.53;9.10;;;;;;;;;;5100068;28;20452;-74
2024/01/06 00:26:51;;;;;;;12.67;9.17;;;;;;;;;;5095676;28;21026;-73
2024/01/06 00:29:17;;;;;;;13.10;9.00;;;;;;;;;;5094837;28;20510;-73
2024/01/06 00:31:44;;;;;;;12.90;8.77;;;;;;;;;;5095010;28;20466;-73
2024/01/06 00:34:10;;;;;;;12.20;8.50;;;;;;;;;;5091771;28;20473;-73
2024/01/06 00:36:37;;;;;;;12.00;8.30;;;;;;;;;;5102372;28;20925;-73
2024/01/06 00:39:03;;;;;;;13.50;8.60;;;;;;;;;;5108286;28;20535;-74
2024/01/06 00:41:31;;;;;;;12.80;9.77;;;;;;;;;;5084814;28;20469;-74
2024/01/06 00:43:57;;;;;;;12.20;7.70;;;;;;;;;;5086258;28;20483;-73
2024/01/06 00:46:24;;;;;;;13.47;9.73;;;;;;;;;;5089983;28;20918;-73
2024/01/06 00:48:50;;;;;;;16.13;9.70;;;;;;;;;;5103807;28;20475;-73
2024/01/06 00:51:17;;;;;;;14.17;9.20;;;;;;;;;;5086893;28;20483;-73
2024/01/06 00:53:43;;;;;;;15.73;9.23;;;;;;;;;;5087227;28;20551;-73
2024/01/06 00:56:09;;;;;;;12.67;8.80;;;;;;;;;;5095830;28;20572;-73
2024/01/06 00:58:37;;;;;;;14.17;9.80;;;;;;;;;;5089166;28;20526;-73
2024/01/06 01:01:04;;;;;;;13.50;8.90;;;;;;;;;;5097032;28;20522;-73
2024/01/06 01:03:30;;;;;;;14.80;9.83;;;;;;;;;;5095077;28;20444;-73
2024/01/06 01:05:57;;;;;;;18.50;11.00;;;;;;;;;;5097836;28;21194;-73
2024/01/06 01:08:24;;;;;;;17.87;10.53;;;;;;;;;;5088641;28;20459;-73
2024/01/06 01:10:50;;;;;;;14.27;10.07;;;;;;;;;;5097541;28;20486;-73
2024/01/06 01:13:16;;;;;;;15.50;10.13;;;;;;;;;;5090122;28;20577;-73
2024/01/06 01:15:44;;;;;;;15.43;9.83;;;;;;;;;;5095207;28;20500;-73
2024/01/06 01:18:10;;;;;;;12.80;8.30;;;;;;;;;;5092571;28;20462;-73
2024/01/06 01:20:37;;;;;;;14.20;9.70;;;;;;;;;;5096772;28;20475;-73
2024/01/06 01:23:03;;;;;;;14.43;10.30;;;;;;;;;;5092780;28;20465;-73
2024/01/06 01:25:30;;;;;;;12.97;9.43;;;;;;;;;;5093463;28;20522;-73
2024/01/06 01:27:56;;;;;;;18.10;11.10;;;;;;;;;;5094674;28;20455;-73
2024/01/06 01:30:23;;;;;;;14.97;10.53;;;;;;;;;;5089773;28;20490;-73
2024/01/06 01:32:50;;;;;;;13.00;9.37;;;;;;;;;;5089301;28;20915;-73
2024/01/06 01:35:17;;;;;;;16.83;12.03;;;;;;;;;;5089973;28;20607;-72
2024/01/06 01:37:43;;;;;;;14.47;9.60;;;;;;;;;;5095018;28;21068;-72
2024/01/06 01:40:10;;;;;;;15.63;10.53;;;;;;;;;;5096938;28;20510;-73
2024/01/06 01:42:37;;;;;;;14.07;10.30;;;;;;;;;;5085727;28;20551;-72
2024/01/06 01:45:05;;;;;;;13.10;9.63;;;;;;;;;;5097688;28;20465;-72
2024/01/06 01:47:31;;;;;;;15.77;10.37;;;;;;;;;;5093983;28;20480;-72
2024/01/06 01:49:59;;;;;;;13.67;10.13;;;;;;;;;;5092460;28;20507;-73
2024/01/06 01:52:25;;;;;;;12.23;10.23;;;;;;;;;;5088567;28;20487;-73
2024/01/06 01:54:52;;;;;;;13.20;9.10;;;;;;;;;;5084573;28;20551;-72
2024/01/06 01:57:19;;;;;;;15.93;9.50;;;;;;;;;;5091616;28;20443;-72
2024/01/06 01:59:46;;;;;;;14.70;9.77;;;;;;;;;;5091649;28;20494;-72
2024/01/06 02:02:12;;;;;;;15.10;10.30;;;;;;;;;;5092516;28;20482;-72
2024/01/06 02:04:39;;;;;;;15.27;10.13;;;;;;;;;;5090357;28;20529;-72
2024/01/06 02:07:07;;;;;;;12.20;8.77;;;;;;;;;;5091553;28;20508;-72
2024/01/06 02:09:33;;;;;;;14.30;9.70;;;;;;;;;;5094759;28;20565;-72
2024/01/06 02:11:59;;;;;;;14.97;10.37;;;;;;;;;;5090851;28;20545;-72
2024/01/06 02:14:26;;;;;;;13.70;9.30;;;;;;;;;;5098386;28;20546;-72
2024/01/06 02:16:52;;;;;;;15.10;10.83;;;;;;;;;;5091833;28;20471;-72
2024/01/06 02:19:19;;;;;;;13.50;8.43;;;;;;;;;;5087439;28;20485;-72
2024/01/06 02:21:46;;;;;;;12.20;9.10;;;;;;;;;;5099202;28;20506;-72
2024/01/06 02:24:14;;;;;;;13.40;8.93;;;;;;;;;;5094874;28;20531;-72
2024/01/06 02:26:40;;;;;;;15.27;9.37;;;;;;;;;;5103385;28;20522;-72
2024/01/06 02:29:06;;;;;;;13.23;9.03;;;;;;;;;;5096603;28;20856;-72
2024/01/06 02:31:33;;;;;;;15.27;10.47;;;;;;;;;;5099094;28;20490;-72
2024/01/06 02:33:59;;;;;;;12.60;9.10;;;;;;;;;;5094415;28;21168;-72
2024/01/06 02:36:25;;;;;;;14.80;9.57;;;;;;;;;;5094894;28;20553;-72
2024/01/06 02:38:52;;;;;;;16.50;9.77;;;;;;;;;;5088665;28;20501;-73
2024/01/06 02:41:20;;;;;;;14.70;9.03;;;;;;;;;;5088162;28;20998;-73
2024/01/06 02:43:46;;;;;;;15.20;9.83;;;;;;;;;;5087432;28;20451;-74
2024/01/06 02:46:12;;;;;;;14.30;9.20;;;;;;;;;;5091678;28;20583;-74
2024/01/06 02:48:39;;;;;;;16.73;10.60;;;;;;;;;;5091312;28;20514;-74
2024/01/06 02:51:05;;;;;;;13.53;9.37;;;;;;;;;;5095049;28;20477;-75
2024/01/06 02:53:32;;;;;;;11.90;8.23;;;;;;;;;;5095057;28;21053;-74
2024/01/06 02:55:58;;;;;;;14.10;8.90;;;;;;;;;;5092760;28;20482;-73
2024/01/06 02:58:26;;;;;;;14.20;9.53;;;;;;;;;;5094783;28;20523;-73
2024/01/06 03:00:52;;;;;;;15.90;10.77;;;;;;;;;;5095480;28;20498;-73
2024/01/06 03:03:18;;;;;;;13.30;9.20;;;;;;;;;;5089313;28;20494;-73
2024/01/06 03:05:48;;;;;;;14.90;9.80;;;;;;;;;;5085972;28;20482;-73
2024/01/06 03:08:15;;;;;;;16.30;10.10;;;;;;;;;;5090649;28;20462;-73
2024/01/06 03:10:41;;;;;;;11.70;8.63;;;;;;;;;;5094206;28;20541;-73
2024/01/06 03:13:07;;;;;;;17.90;10.30;;;;;;;;;;5092645;28;20527;-73
2024/01/06 03:15:35;;;;;;;15.33;9.20;;;;;;;;;;5097044;28;20469;-73
2024/01/06 03:18:02;;;;;;;18.40;10.63;;;;;;;;;;5095099;28;21350;-73
2024/01/06 03:20:28;;;;;;;16.13;11.10;;;;;;;;;;5105397;28;20471;-73
2024/01/06 03:22:54;;;;;;;15.93;10.13;;;;;;;;;;5092532;28;20523;-73
2024/01/06 03:25:21;;;;;;;15.13;10.20;;;;;;;;;;5094564;28;20445;-73
2024/01/06 03:27:48;;;;;;;16.50;10.87;;;;;;;;;;5094551;28;20474;-73
2024/01/06 03:30:14;;;;;;;16.93;11.43;;;;;;;;;;5102404;28;20470;-73
2024/01/06 03:32:42;;;;;;;16.80;10.83;;;;;;;;;;5097272;28;20543;-73
2024/01/06 03:35:08;;;;;;;18.27;11.83;;;;;;;;;;5096920;28;20562;-73
2024/01/06 03:37:35;;;;;;;19.53;12.47;;;;;;;;;;5102594;28;20505;-73
2024/01/06 03:40:02;;;;;;;15.47;10.50;;;;;;;;;;5101745;28;20507;-73
2024/01/06 03:42:29;;;;;;;17.17;12.50;;;;;;;;;;5099548;28;20453;-73
2024/01/06 03:44:55;;;;;;;17.47;11.23;;;;;;;;;;5099385;28;20483;-73
2024/01/06 03:47:21;;;;;;;16.43;10.30;;;;;;;;;;5106214;28;20544;-73
2024/01/06 03:49:49;;;;;;;17.40;10.80;;;;;;;;;;5088063;28;20547;-73
2024/01/06 03:52:16;;;;;;;18.23;12.00;;;;;;;;;;5094055;28;20451;-73
2024/01/06 03:54:42;;;;;;;17.03;11.00;;;;;;;;;;5099925;28;20554;-73
2024/01/06 03:57:08;;;;;;;16.63;10.90;;;;;;;;;;5098522;28;20529;-73
2024/01/06 03:59:35;;;;;;;17.17;10.97;;;;;;;;;;5098567;28;20478;-73
2024/01/06 04:02:01;;;;;;;18.57;11.50;;;;;;;;;;5107042;28;20454;-73
2024/01/06 04:04:28;;;;;;;16.47;11.67;;;;;;;;;;5093815;28;20443;-73
2024/01/06 04:06:56;;;;;;;18.83;12.97;;;;;;;;;;5095284;28;20475;-73
2024/01/06 04:09:22;;;;;;;18.23;12.00;;;;;;;;;;5086774;28;20534;-73
2024/01/06 04:11:48;;;;;;;18.63;11.90;;;;;;;;;;5096166;28;20489;-72
2024/01/06 04:14:15;;;;;;;16.50;12.00;;;;;;;;;;5095313;28;20566;-73
2024/01/06 04:16:41;;;;;;;19.13;13.20;;;;;;;;;;5088732;28;20462;-73
2024/01/06 04:19:08;;;;;;;18.97;12.57;;;;;;;;;;5102678;28;20511;-73
2024/01/06 04:21:35;;;;;;;19.53;12.60;;;;;;;;;;5096912;28;20466;-73
2024/01/06 04:24:02;;;;;;;18.40;11.83;;;;;;;;;;5086311;28;21039;-73
2024/01/06 04:26:29;;;;;;;21.60;13.27;;;;;;;;;;5094565;28;20460;-73
2024/01/06 04:28:55;;;;;;;20.33;11.87;;;;;;;;;;5098317;28;21005;-72
2024/01/06 04:31:21;;;;;;;18.83;11.10;;;;;;;;;;5094264;28;20518;-73
2024/01/06 04:33:48;;;;;;;20.97;12.10;;;;;;;;;;5101094;28;20585;-73
2024/01/06 04:36:14;;;;;;;17.97;12.93;;;;;;;;;;5092316;28;20513;-72
2024/01/06 04:38:41;;;;;;;19.70;12.70;;;;;;;;;;5095839;28;20486;-72
2024/01/06 04:41:08;;;;;;;20.10;12.40;;;;;;;;;;5097369;28;20537;-74
2024/01/06 04:43:35;;;;;;;18.40;12.53;;;;;;;;;;5095740;28;20443;-74
2024/01/06 04:46:02;;;;;;;16.93;11.60;;;;;;;;;;5096794;28;20469;-73
2024/01/06 04:48:28;;;;;;;21.47;11.97;;;;;;;;;;5100745;28;20454;-73
2024/01/06 04:50:55;;;;;;;18.70;13.00;;;;;;;;;;5094001;28;20450;-73
2024/01/06 04:53:21;;;;;;;25.63;12.90;;;;;;;;;;5100667;28;20483;-73
2024/01/06 04:55:47;;;;;;;20.13;13.60;;;;;;;;;;5094962;28;20563;-73
2024/01/06 04:58:15;;;;;;;18.80;11.80;;;;;;;;;;5095692;28;20447;-73
2024/01/06 05:00:41;;;;;;;17.90;11.23;;;;;;;;;;5097360;28;20547;-73
2024/01/06 05:03:08;;;;;;;21.00;11.93;;;;;;;;;;5094526;28;21045;-73
2024/01/06 05:05:34;;;;;;;18.97;12.77;;;;;;;;;;5092566;28;20471;-72
2024/01/06 05:08:01;;;;;;;19.27;12.10;;;;;;;;;;5085378;28;20483;-72
2024/01/06 05:10:27;;;;;;;18.47;11.03;;;;;;;;;;5105390;28;20463;-72
2024/01/06 05:12:54;;;;;;;18.07;11.50;;;;;;;;;;5093892;28;20514;-73
2024/01/06 05:15:21;;;;;;;19.37;11.77;;;;;;;;;;5094264;28;20480;-73
2024/01/06 05:17:48;;;;;;;20.10;11.90;;;;;;;;;;5084444;28;20505;-73
2024/01/06 05:20:15;;;;;;;16.03;9.63;;;;;;;;;;5092104;28;20856;-72
2024/01/06 05:22:41;;;;;;;18.17;9.47;;;;;;;;;;5096317;28;20507;-73
2024/01/06 05:25:09;;;;;;;11.33;7.00;;;;;;;;;;5098122;28;20515;-72
2024/01/06 05:27:35;;;;;;;10.03;6.40;;;;;;;;;;5096209;28;20455;-72
2024/01/06 05:30:01;;;;;;;8.10;5.60;;;;;;;;;;5089789;28;20562;-73
2024/01/06 05:32:29;;;;;;;7.10;4.80;;;;;;;;;;5101732;28;20455;-73
2024/01/06 05:34:55;;;;;;;8.20;4.90;;;;;;;;;;5106238;28;21358;-74
2024/01/06 05:37:22;;;;;;;6.70;4.30;;;;;;;;;;5095576;28;20514;-73
2024/01/06 05:39:48;;;;;;;6.60;4.57;;;;;;;;;;5086620;28;20458;-73
2024/01/06 05:42:15;;;;;;;6.97;4.40;;;;;;;;;;5099730;28;20554;-73
2024/01/06 05:44:42;;;;;;;6.20;4.07;;;;;;;;;;5095270;28;20447;-73
2024/01/06 05:47:09;;;;;;;6.37;3.67;;;;;;;;;;5108679;28;20508;-73
2024/01/06 05:49:36;;;;;;;5.50;3.17;;;;;;;;;;5097571;28;20462;-73
2024/01/06 05:52:03;;;;;;;5.70;4.03;;;;;;;;;;5102308;28;20490;-74
2024/01/06 05:54:30;;;;;;;6.83;4.37;;;;;;;;;;5089938;28;20554;-74
2024/01/06 05:56:56;;;;;;;5.73;4.10;;;;;;;;;;5096973;28;20450;-73
2024/01/06 05:59:23;;;;;;;5.20;4.30;;;;;;;;;;5092357;28;20526;-74
2024/01/06 06:01:49;;;;;;;4.57;4.00;;;;;;;;;;5091540;28;20451;-73
2024/01/06 06:04:16;;;;;;;6.57;4.80;;;;;;;;;;5092208;28;20524;-72
2024/01/06 06:06:44;;;;;;;5.20;4.47;;;;;;;;;;5094084;28;20523;-73
2024/01/06 06:09:10;;;;;;;6.57;4.47;;;;;;;;;;5091742;28;20463;-73
2024/01/06 06:11:37;;;;;;;5.50;4.07;;;;;;;;;;5090647;28;20489;-73
2024/01/06 06:14:04;;;;;;;5.10;4.20;;;;;;;;;;5099918;28;20497;-72
2024/01/06 06:16:30;;;;;;;5.77;3.87;;;;;;;;;;5094425;28;20505;-73
2024/01/06 06:18:58;;;;;;;6.27;4.50;;;;;;;;;;5087632;28;20459;-72
2024/01/06 06:21:24;;;;;;;6.70;4.83;;;;;;;;;;5092825;28;20791;-72
2024/01/06 06:23:52;;;;;;;5.33;3.90;;;;;;;;;;5087001;28;21092;-72
2024/01/06 06:26:18;;;;;;;5.17;3.97;;;;;;;;;;5095102;28;20475;-72
2024/01/06 06:28:45;;;;;;;6.30;5.33;;;;;;;;;;5088984;28;20532;-72
2024/01/06 06:31:11;;;;;;;6.77;5.10;;;;;;;;;;5090816;28;20567;-72
2024/01/06 06:33:37;;;;;;;7.90;5.60;;;;;;;;;;5094242;28;20526;-72
2024/01/06 06:36:04;;;;;;;8.57;6.13;;;;;;;;;;5096234;28;20509;-72
2024/01/06 06:38:31;;;;;;;9.07;6.60;;;;;;;;;;5098161;28;20477;-74
2024/01/06 06:40:58;;;;;;;7.40;6.27;;;;;;;;;;5098763;28;20534;-73
2024/01/06 06:43:25;;;;;;;8.47;6.10;;;;;;;;;;5104302;28;20545;-72
2024/01/06 06:45:51;;;;;;;7.30;5.17;;;;;;;;;;5092433;28;20487;-72
2024/01/06 06:48:17;;;;;;;7.13;5.73;;;;;;;;;;5099237;28;20481;-73
2024/01/06 06:50:44;;;;;;;7.97;5.17;;;;;;;;;;5096278;28;20479;-72
2024/01/06 06:53:10;;;;;;;7.93;4.70;;;;;;;;;;5098771;28;20447;-72
2024/01/06 06:55:37;;;;;;;6.80;5.20;;;;;;;;;;5096176;28;20566;-73
2024/01/06 06:58:05;;;;;;;7.27;5.37;;;;;;;;;;5097742;28;20450;-73
2024/01/06 07:00:32;;;;;;;5.70;4.93;;;;;;;;;;5095860;28;20459;-74
2024/01/06 07:02:58;;;;;;;7.23;5.07;;;;;;;;;;5093462;28;20723;-73
2024/01/06 07:05:25;;;;;;;7.27;5.33;;;;;;;;;;5098165;28;20462;-73
2024/01/06 07:07:51;;;;;;;6.83;5.43;;;;;;;;;;5099661;28;20969;-72
2024/01/06 07:10:17;;;;;;;6.00;4.87;;;;;;;;;;5097674;28;20455;-73
2024/01/06 07:12:44;;;;;;;5.70;4.40;;;;;;;;;;5091779;28;20554;-73
2024/01/06 07:15:12;;;;;;;7.03;6.27;;;;;;;;;;5091201;28;20549;-74
2024/01/06 07:17:38;;;;;;;5.77;5.17;;;;;;;;;;5097536;28;20447;-72
2024/01/06 07:20:06;;;;;;;6.87;5.13;;;;;;;;;;5100568;28;21092;-72
2024/01/06 07:22:34;;;;;;;6.77;5.17;;;;;;;;;;5095830;28;20459;-72
2024/01/06 07:25:00;;;;;;;6.13;4.87;;;;;;;;;;5096630;28;20455;-72
2024/01/06 07:27:27;;;;;;;5.90;5.13;;;;;;;;;;5095378;28;20478;-72
2024/01/06 07:29:55;;;;;;;7.50;5.87;;;;;;;;;;5096976;28;20932;-72
2024/01/06 07:32:23;;;;;;;6.60;5.90;;;;;;;;;;5088388;28;21047;-72
2024/01/06 07:34:49;;;;;;;6.30;5.63;;;;;;;;;;5093822;28;20577;-72
2024/01/06 07:37:15;;;;;;;7.87;6.00;;;;;;;;;;5103514;28;21022;-72
2024/01/06 07:39:42;;;;;;;6.60;5.60;;;;;;;;;;5105209;28;20526;-72
2024/01/06 07:42:08;;;;;;;8.00;6.40;;;;;;;;;;5102659;28;20451;-72
2024/01/06 07:44:35;;;;;;;8.63;6.77;;;;;;;;;;5088050;28;20566;-72
2024/01/06 07:47:02;;;;;;;8.07;6.60;;;;;;;;;;5107391;28;20450;-72
2024/01/06 07:49:29;;;;;;;7.40;5.97;;;;;;;;;;5098632;28;20447;-72
2024/01/06 07:51:56;;;;;;;7.77;6.27;;;;;;;;;;5105036;28;20457;-73
2024/01/06 07:54:22;;;;;;;8.50;6.50;;;;;;;;;;5097775;28;20495;-72
2024/01/06 07:56:48;;;;;;;8.97;6.70;;;;;;;;;;5104501;28;21178;-72
2024/01/06 07:59:15;;;;;;;10.33;7.47;;;;;;;;;;5091458;28;20480;-72
2024/01/06 08:01:42;;;;;;;9.50;6.93;;;;;;;;;;5102357;28;20497;-72
2024/01/06 08:04:09;;;;;;;10.90;7.60;;;;;;;;;;5104164;28;20455;-72
2024/01/06 08:06:36;;;;;;;8.50;6.13;;;;;;;;;;5102048;28;20477;-72
2024/01/06 08:09:03;;;;;;;7.00;5.40;;;;;;;;;;5100342;28;20538;-72
2024/01/06 08:11:30;;;;;;;6.90;5.50;;;;;;;;;;5091040;28;20455;-72
2024/01/06 08:13:56;;;;;;;6.70;5.20;;;;;;;;;;5093011;28;20463;-73
2024/01/06 08:16:23;;;;;;;8.07;5.60;;;;;;;;;;5090855;28;20471;-72
2024/01/06 08:18:49;;;;;;;8.20;6.40;;;;;;;;;;5099149;28;20870;-72
2024/01/06 08:21:16;;;;;;;8.30;6.17;;;;;;;;;;5104878;28;21018;-72
2024/01/06 08:23:44;;;;;;;7.70;6.30;;;;;;;;;;5106636;28;20574;-72
2024/01/06 08:26:10;;;;;;;7.57;6.13;;;;;;;;;;5107868;28;20995;-72
2024/01/06 08:28:37;;;;;;;10.23;6.00;;;;;;;;;;5089465;28;20511;-73
2024/01/06 08:31:03;;;;;;;7.57;6.80;;;;;;;;;;5089792;28;20463;-72
2024/01/06 08:33:30;;;;;;;11.53;7.83;;;;;;;;;;5091740;28;20561;-78
2024/01/06 08:35:56;;;;;;;11.50;7.50;;;;;;;;;;5098026;28;20966;-79
2024/01/06 08:38:23;;;;;;;12.27;7.27;;;;;;;;;;5099522;28;20808;-80
2024/01/06 08:40:51;;;;;;;12.10;8.23;;;;;;;;;;5094382;28;20494;-79
2024/01/06 08:43:18;;;;;;;10.87;7.57;;;;;;;;;;5091773;28;20486;-80
2024/01/06 08:45:44;;;;;;;14.10;8.60;;;;;;;;;;5096341;28;21118;-80
2024/01/06 08:48:11;;;;;;;11.47;8.00;;;;;;;;;;5093031;28;20472;-78
2024/01/06 08:50:37;;;;;;;10.43;6.70;;;;;;;;;;5088067;28;20462;-79
2024/01/06 08:53:04;;;;;;;14.33;8.40;;;;;;;;;;5100184;28;20573;-78
2024/01/06 08:55:31;;;;;;;11.60;7.43;;;;;;;;;;5100365;28;20482;-78
2024/01/06 08:57:58;;;;;;;10.47;7.33;;;;;;;;;;5100168;28;20447;-78
2024/01/06 09:00:25;;;;;;;8.80;6.37;;;;;;;;;;5093754;28;20471;-80
2024/01/06 09:02:51;;;;;;;10.00;7.40;;;;;;;;;;5097258;28;20477;-78
2024/01/06 09:05:18;;;;;;;11.40;6.90;;;;;;;;;;5096684;28;20446;-77
2024/01/06 09:07:49;;;;;;;8.10;6.03;;;;;;;;;;5098465;28;20486;-80
2024/01/06 09:10:15;;;;;;;9.47;6.07;;;;;;;;;;5105580;28;20485;-78
2024/01/06 09:12:41;;;;;;;8.60;6.60;;;;;;;;;;5098371;28;20499;-80
2024/01/06 09:15:09;;;;;;;9.23;7.10;;;;;;;;;;5096019;28;20478;-80
2024/01/06 09:17:36;;;;;;;10.50;5.90;;;;;;;;;;5095260;28;20953;-80
2024/01/06 09:20:02;;;;;;;10.70;6.90;;;;;;;;;;5093511;28;20522;-77
2024/01/06 09:22:29;;;;;;;10.30;6.70;;;;;;;;;;5097796;28;20975;-78
2024/01/06 09:24:55;;;;;;;10.40;6.80;;;;;;;;;;5098349;28;20457;-81
2024/01/06 09:27:22;;;;;;;9.97;7.10;;;;;;;;;;5094447;28;20483;-76
2024/01/06 09:29:48;;;;;;;10.07;6.43;;;;;;;;;;5097799;28;20490;-79
2024/01/06 09:32:16;;;;;;;10.13;6.37;;;;;;;;;;5103498;28;20495;-78
2024/01/06 09:34:43;;;;;;;9.53;5.77;;;;;;;;;;5104416;28;20470;-78
2024/01/06 09:37:09;;;;;;;9.10;6.17;;;;;;;;;;5099536;28;20523;-80
2024/01/06 09:39:35;;;;;;;9.70;6.30;;;;;;;;;;5103392;28;20497;-80
2024/01/06 09:42:02;;;;;;;10.63;6.97;;;;;;;;;;5097180;28;20904;-80
2024/01/06 09:44:28;;;;;;;10.53;5.93;;;;;;;;;;5104994;28;21173;-80
2024/01/06 09:46:57;;;;;;;10.10;6.13;;;;;;;;;;5092852;28;20443;-79
2024/01/06 09:49:25;;;;;;;7.53;5.50;;;;;;;;;;5101666;28;20442;-78
2024/01/06 09:51:53;;;;;;;8.60;5.50;;;;;;;;;;5102915;28;20463;-77
2024/01/06 09:54:24;;;;;;;11.50;6.80;;;;;;;;;;5085356;28;20499;-79
2024/01/06 09:56:50;;;;;;;11.87;6.17;;;;;;;;;;5093921;28;20500;-80
2024/01/06 09:59:17;;;;;;;7.40;5.10;;;;;;;;;;5098216;28;20527;-80
2024/01/06 10:01:43;;;;;;;7.53;5.13;;;;;;;;;;5092801;28;20558;-77
2024/01/06 10:04:09;;;;;;;7.03;5.30;;;;;;;;;;5084194;28;20455;-79
2024/01/06 10:06:37;;;;;;;8.20;5.60;;;;;;;;;;5088235;28;20456;-78
2024/01/06 10:09:05;;;;;;;12.50;5.30;;;;;;;;;;5091814;28;20451;-76
2024/01/06 10:11:31;;;;;;;7.90;5.23;;;;;;;;;;5095064;28;20455;-72
2024/01/06 10:13:58;;;;;;;8.50;6.20;;;;;;;;;;5090036;28;20495;-75
2024/01/06 10:16:24;;;;;;;8.00;6.00;;;;;;;;;;5097586;28;20482;-74
2024/01/06 10:18:50;;;;;;;8.37;6.20;;;;;;;;;;5094955;28;20500;-76
2024/01/06 10:21:17;;;;;;;9.30;5.90;;;;;;;;;;5105003;28;20533;-67
2024/01/06 10:23:45;;;;;;;10.93;5.23;;;;;;;;;;5092441;28;20458;-68
2024/01/06 10:26:13;;;;;;;9.80;5.77;;;;;;;;;;5094081;28;20431;-67
2024/01/06 10:28:40;;;;;;;7.93;5.57;;;;;;;;;;5088593;28;20447;-66
2024/01/06 10:31:08;;;;;;;8.77;5.40;;;;;;;;;;5089449;28;20470;-68
2024/01/06 10:33:35;;;;;;;11.60;6.80;;;;;;;;;;5094231;28;20473;-67
2024/01/06 10:36:01;;;;;;;10.77;6.70;;;;;;;;;;5090990;28;20555;-67
2024/01/06 10:38:28;;;;;;;9.57;6.17;;;;;;;;;;5102755;28;21119;-67
2024/01/06 10:40:59;;;;;;;9.20;5.73;;;;;;;;;;5092951;28;20538;-68
2024/01/06 10:43:26;;;;;;;6.83;4.97;;;;;;;;;;5093417;28;20490;-68
2024/01/06 10:45:54;;;;;;;8.17;4.80;;;;;;;;;;5097013;28;20486;-69
2024/01/06 10:48:21;;;;;;;7.53;5.00;;;;;;;;;;5096441;28;20459;-69
2024/01/06 10:50:48;;;;;;;6.20;5.13;;;;;;;;;;5088952;28;20876;-68
2024/01/06 10:53:15;;;;;;;6.47;4.70;;;;;;;;;;5101261;28;20519;-69
2024/01/06 10:55:42;;;;;;;6.07;4.50;;;;;;;;;;5091700;28;21078;-69
2024/01/06 10:58:10;;;;;;;8.10;4.90;;;;;;;;;;5101449;28;20523;-69
2024/01/06 11:00:37;;;;;;;6.83;4.50;;;;;;;;;;5099107;28;20938;-70
2024/01/06 11:03:05;;;;;;;9.43;5.60;;;;;;;;;;5109931;28;20514;-71
2024/01/06 11:05:31;;;;;;;9.23;5.13;;;;;;;;;;5102829;28;20479;-71
2024/01/06 11:08:00;;;;;;;7.40;5.27;;;;;;;;;;5096168;28;20474;-72
2024/01/06 11:10:29;;;;;;;6.37;4.47;;;;;;;;;;5100248;28;20447;-69
2024/01/06 11:13:13;;;;;;;7.67;5.03;;;;;;;;;;5091837;28;20493;-69
2024/01/06 11:15:46;;;;;;;8.40;4.53;;;;;;;;;;5086252;28;20494;-69
2024/01/06 11:18:31;;;;;;;9.10;4.60;;;;;;;;;;5096774;28;20522;-72
2024/01/06 11:21:18;;;;;;;4.90;3.90;;;;;;;;;;5094374;28;20478;-71
2024/01/06 11:23:46;;;;;;;5.67;4.23;;;;;;;;;;5082464;28;20470;-79
2024/01/06 11:26:14;;;;;;;7.80;4.50;;;;;;;;;;5093464;28;20443;-77
2024/01/06 11:28:46;;;;;;;5.63;4.30;;;;;;;;;;5086240;28;20455;-81
2024/01/06 11:31:12;;;;;;;5.13;4.47;;;;;;;;;;5086321;28;20448;-83
2024/01/06 11:33:42;;;;;;;3.87;3.50;;;;;;;;;;5089394;28;20968;-82
2024/01/06 11:36:09;;;;;;;4.13;3.77;;;;;;;;;;5090040;28;20585;-82
2024/01/06 11:38:38;;;;;;;5.43;3.83;;;;;;;;;;5095964;28;21014;-76
2024/01/06 11:41:04;;;;;;;4.33;3.93;;;;;;;;;;5101678;28;20455;-73
2024/01/06 11:43:32;;;;;;;3.47;3.17;;;;;;;;;;5094647;28;21026;-73
2024/01/06 11:46:00;;;;;;;5.33;3.73;;;;;;;;;;5095835;28;20447;-73
2024/01/06 11:48:31;;;;;;;4.30;3.70;;;;;;;;;;5091684;28;20493;-73
2024/01/06 11:50:58;;;;;;;3.43;3.17;;;;;;;;;;5093336;28;20530;-72
2024/01/06 11:53:26;;;;;;;7.70;4.10;;;;;;;;;;5096408;28;20548;-72
2024/01/06 11:55:52;;;;;;;4.40;4.00;;;;;;;;;;5104927;28;20476;-73
2024/01/06 11:58:19;;;;;;;4.27;3.87;;;;;;;;;;5095111;28;20895;-72
2024/01/06 12:00:55;;;;;;;4.13;3.73;;;;;;;;;;5095622;28;20490;-72
2024/01/06 12:03:23;;;;;;;8.77;3.67;;;;;;;;;;5090481;28;20535;-72
2024/01/06 12:05:59;;;;;;;3.63;3.33;;;;;;;;;;5086966;28;20486;-73
2024/01/06 12:08:27;;;;;;;4.40;3.90;;;;;;;;;;5093031;28;20727;-72
2024/01/06 12:11:02;;;;;;;4.20;3.80;;;;;;;;;;5094825;28;20579;-73
2024/01/06 12:13:28;;;;;;;3.77;3.37;;;;;;;;;;5092968;28;20486;-73
2024/01/06 12:15:56;;;;;;;3.77;3.20;;;;;;;;;;5090134;28;20455;-72
2024/01/06 12:18:24;;;;;;;4.30;3.60;;;;;;;;;;5089484;28;20483;-72
2024/01/06 12:20:51;;;;;;;3.63;3.33;;;;;;;;;;5093578;28;20447;-72
2024/01/06 12:23:24;;;;;;;3.37;3.07;;;;;;;;;;5090630;28;20475;-73
2024/01/06 12:25:50;;;;;;;4.57;3.37;;;;;;;;;;5089989;28;20518;-72
2024/01/06 12:28:17;;;;;;;3.97;3.57;;;;;;;;;;5096110;28;20888;-73
2024/01/06 12:30:45;;;;;;;4.07;3.67;;;;;;;;;;5101756;28;20570;-72
2024/01/06 12:33:11;;;;;;;4.83;3.20;;;;;;;;;;5090103;28;20467;-77
2024/01/06 12:35:39;;;;;;;4.97;3.70;;;;;;;;;;5096623;28;20516;-76
2024/01/06 12:38:06;;;;;;;3.93;3.63;;;;;;;;;;5088266;28;20474;-73
2024/01/06 12:40:33;;;;;;;7.07;4.10;;;;;;;;;;5093235;28;21026;-74
2024/01/06 12:42:59;;;;;;;4.40;4.00;;;;;;;;;;5091909;28;20455;-74
2024/01/06 12:45:27;;;;;;;5.40;3.60;;;;;;;;;;5089372;28;20535;-75
2024/01/06 12:47:54;;;;;;;4.37;3.37;;;;;;;;;;5088334;28;20479;-75
2024/01/06 12:50:21;;;;;;;6.57;3.90;;;;;;;;;;5092557;28;20445;-76
2024/01/06 12:52:49;;;;;;;4.03;3.63;;;;;;;;;;5092269;28;20539;-74
2024/01/06 12:55:15;;;;;;;4.93;4.07;;;;;;;;;;5089851;28;20543;-74
2024/01/06 12:57:42;;;;;;;3.90;3.50;;;;;;;;;;5095796;28;21177;-74
2024/01/06 13:00:11;;;;;;;4.57;4.17;;;;;;;;;;5092390;28;20483;-72
2024/01/06 13:02:38;;;;;;;4.67;4.23;;;;;;;;;;5092352;28;20459;-73
2024/01/06 13:05:05;;;;;;;5.93;4.30;;;;;;;;;;5093493;28;20467;-73
2024/01/06 13:07:31;;;;;;;4.23;3.83;;;;;;;;;;5085892;28;20443;-73
2024/01/06 13:09:59;;;;;;;6.07;3.87;;;;;;;;;;5092762;28;20455;-72
2024/01/06 13:12:26;;;;;;;5.17;4.20;;;;;;;;;;5100096;28;20472;-73
2024/01/06 13:14:53;;;;;;;4.40;4.00;;;;;;;;;;5089623;28;20452;-76
2024/01/06 13:17:19;;;;;;;4.37;3.97;;;;;;;;;;5091322;28;20885;-77
2024/01/06 13:19:46;;;;;;;4.43;4.00;;;;;;;;;;5092689;28;20522;-73
2024/01/06 13:22:12;;;;;;;4.33;3.93;;;;;;;;;;5092469;28;20551;-74
2024/01/06 13:24:40;;;;;;;5.50;4.13;;;;;;;;;;5086968;28;20491;-74
2024/01/06 13:27:09;;;;;;;5.03;4.23;;;;;;;;;;5090683;28;20455;-74
2024/01/06 13:29:35;;;;;;;8.40;5.30;;;;;;;;;;5089073;28;20454;-75
2024/01/06 13:32:02;;;;;;;4.50;3.83;;;;;;;;;;5090265;28;20883;-75
2024/01/06 13:34:29;;;;;;;7.90;5.73;;;;;;;;;;5094870;28;20455;-74
2024/01/06 13:36:57;;;;;;;3.67;3.27;;;;;;;;;;5092294;28;20486;-77
2024/01/06 13:39:23;;;;;;;3.73;3.30;;;;;;;;;;5087534;28;20495;-77
2024/01/06 13:41:50;;;;;;;2.93;2.73;;;;;;;;;;5091882;28;20452;-76
2024/01/06 13:44:18;;;;;;;3.50;3.20;;;;;;;;;;5101550;28;20445;-76
2024/01/06 13:46:44;;;;;;;3.83;3.40;;;;;;;;;;5093831;28;20502;-76
2024/01/06 13:49:11;;;;;;;3.10;2.83;;;;;;;;;;5088686;28;20455;-76
2024/01/06 13:51:37;;;;;;;3.73;3.43;;;;;;;;;;5100713;28;20495;-77
2024/01/06 13:54:04;;;;;;;3.37;3.17;;;;;;;;;;5090646;28;20537;-76
2024/01/06 13:56:30;;;;;;;3.27;2.93;;;;;;;;;;5099729;28;20498;-76
2024/01/06 13:58:57;;;;;;;3.90;3.50;;;;;;;;;;5085239;28;20453;-76
2024/01/06 14:01:25;;;;;;;2.60;2.40;;;;;;;;;;5090865;28;20463;-76
2024/01/06 14:03:57;;;;;;;5.40;3.00;;;;;;;;;;5092451;28;20494;-76
2024/01/06 14:06:23;;;;;;;2.90;2.70;;;;;;;;;;5087472;28;20481;-76
2024/01/06 14:08:50;;;;;;;3.37;3.07;;;;;;;;;;5096337;28;20494;-76
2024/01/06 14:11:16;;;;;;;3.10;2.90;;;;;;;;;;5096433;28;20507;-76
2024/01/06 14:13:43;;;;;;;3.73;2.20;;;;;;;;;;5101632;28;20577;-76
2024/01/06 14:16:09;;;;;;;2.30;2.07;;;;;;;;;;5092617;28;20478;-76
2024/01/06 14:18:37;;;;;;;2.80;2.47;;;;;;;;;;5108464;28;20542;-76
2024/01/06 14:21:04;;;;;;;3.20;2.90;;;;;;;;;;5098810;28;20473;-76
2024/01/06 14:23:32;;;;;;;3.10;2.80;;;;;;;;;;5090193;28;20467;-75
2024/01/06 14:25:59;;;;;;;7.83;3.40;;;;;;;;;;5097259;28;20476;-69
2024/01/06 14:28:25;;;;;;;4.07;3.20;;;;;;;;;;5087045;28;20927;-69
2024/01/06 14:30:52;;;;;;;2.50;2.30;;;;;;;;;;5089512;28;20454;-68
2024/01/06 14:33:18;;;;;;;3.37;2.63;;;;;;;;;;5091586;28;20451;-74